Time;durP1;ratioP1;P1;durP2;ratioP2;P2;SDS_P1;SDS_P2;PMS_P1;PMS_P2;Temp;Humidity;BMP_temperature;BMP_pressure;BME280_temperature;BME280_humidity;BME280_pressure;Samples;Min_cycle;Max_cycle;Signal;HPM_P1;HPM_P2
2020/12/10 00:00:22;;;;;;;;;28.25;24.00;;;;;-0.57;83.91;101458.44;3725708;38;20586;-57
2020/12/10 00:02:49;;;;;;;;;25.50;21.00;;;;;-0.58;83.42;101462.91;3725756;37;17953;-58
2020/12/10 00:05:17;;;;;;;;;21.75;19.25;;;;;-0.57;83.63;101469.94;3725660;37;20699;-58
2020/12/10 00:07:44;;;;;;;;;31.50;24.00;;;;;-0.55;83.56;101468.03;3725153;37;20914;-57
2020/12/10 00:10:11;;;;;;;;;26.50;23.50;;;;;-0.54;83.65;101468.88;3726101;37;20560;-56
2020/12/10 00:12:44;;;;;;;;;27.25;20.00;;;;;-0.48;83.63;101458.72;3725912;38;20560;-57
2020/12/10 00:15:12;;;;;;;;;25.50;20.75;;;;;-0.48;83.43;101466.69;3725700;37;20582;-57
2020/12/10 00:17:38;;;;;;;;;24.00;21.50;;;;;-0.63;83.53;101441.03;3726382;38;20555;-57
2020/12/10 00:20:06;;;;;;;;;30.25;20.00;;;;;-0.52;83.20;101446.56;3725665;37;20570;-56
2020/12/10 00:22:34;;;;;;;;;21.00;19.75;;;;;-0.50;83.23;101433.16;3725555;38;20587;-56
2020/12/10 00:25:01;;;;;;;;;27.25;20.25;;;;;-0.55;83.63;101443.25;3725466;37;20556;-57
2020/12/10 00:27:29;;;;;;;;;23.25;19.50;;;;;-0.50;83.79;101444.66;3725449;38;20583;-57
2020/12/10 00:29:59;;;;;;;;;20.50;17.00;;;;;-0.47;83.57;101440.97;3725215;37;20551;-57
2020/12/10 00:32:26;;;;;;;;;23.75;19.25;;;;;-0.52;83.38;101419.97;3725731;37;20547;-57
2020/12/10 00:34:56;;;;;;;;;26.00;21.50;;;;;-0.63;83.22;101410.94;3725655;37;20530;-57
2020/12/10 00:37:25;;;;;;;;;24.00;20.25;;;;;-0.61;83.52;101419.69;3725739;37;20514;-57
2020/12/10 00:39:51;;;;;;;;;28.75;21.25;;;;;-0.61;83.60;101419.69;3725542;37;20535;-57
2020/12/10 00:42:18;;;;;;;;;25.50;20.00;;;;;-0.60;83.67;101411.62;3725617;37;20531;-56
2020/12/10 00:44:44;;;;;;;;;25.25;21.50;;;;;-0.58;83.53;101423.00;3725583;37;20593;-58
2020/12/10 00:47:11;;;;;;;;;33.25;28.00;;;;;-0.58;83.63;101419.50;3725815;37;20524;-56
2020/12/10 00:49:37;;;;;;;;;29.75;25.75;;;;;-0.60;83.67;101422.25;3725647;38;20530;-56
2020/12/10 00:52:03;;;;;;;;;25.25;21.25;;;;;-0.75;83.30;101389.44;3725669;37;20534;-56
2020/12/10 00:54:29;;;;;;;;;28.25;21.75;;;;;-0.59;83.59;101407.16;3725652;37;20599;-56
2020/12/10 00:56:55;;;;;;;;;24.00;19.25;;;;;-0.58;83.44;101400.91;3725608;37;20509;-57
2020/12/10 00:59:21;;;;;;;;;25.75;21.50;;;;;-0.61;83.37;101401.94;3725092;38;20499;-57
2020/12/10 01:01:48;;;;;;;;;26.00;18.50;;;;;-0.59;83.87;101393.88;3724988;38;20515;-58
2020/12/10 01:04:14;;;;;;;;;22.25;18.25;;;;;-0.60;83.64;101387.69;3725098;38;20495;-56
2020/12/10 01:06:42;;;;;;;;;24.50;19.25;;;;;-0.59;83.52;101389.41;3725445;38;20825;-57
2020/12/10 01:09:10;;;;;;;;;31.25;26.75;;;;;-0.62;83.58;101381.59;3725073;37;20551;-57
2020/12/10 01:11:37;;;;;;;;;25.00;22.00;;;;;-0.61;83.27;101385.97;3724951;37;20518;-56
2020/12/10 01:14:05;;;;;;;;;30.50;18.75;;;;;-0.65;83.62;101378.28;3725141;37;20503;-56
2020/12/10 01:16:32;;;;;;;;;25.00;20.50;;;;;-0.65;83.44;101368.50;3725385;37;20543;-57
2020/12/10 01:18:58;;;;;;;;;23.00;21.25;;;;;-0.69;83.60;101354.53;3725507;37;20486;-59
2020/12/10 01:21:35;;;;;;;;;28.50;22.50;;;;;-0.59;83.75;101375.25;3725568;37;20502;-56
2020/12/10 01:24:05;;;;;;;;;25.00;21.25;;;;;-0.57;83.97;101360.91;3725447;37;20476;-58
2020/12/10 01:26:33;;;;;;;;;22.75;18.00;;;;;-0.66;83.71;101353.50;3725215;38;20485;-57
2020/12/10 01:29:00;;;;;;;;;30.25;23.50;;;;;-0.62;83.51;101349.72;3725564;38;20456;-57
2020/12/10 01:31:28;;;;;;;;;21.25;19.00;;;;;-0.63;84.08;101347.16;3725452;37;20462;-57
2020/12/10 01:33:54;;;;;;;;;26.00;20.00;;;;;-0.62;83.97;101338.22;3725586;38;20456;-57
2020/12/10 01:36:22;;;;;;;;;22.50;16.00;;;;;-0.62;83.70;101344.41;3725668;37;20547;-57
2020/12/10 01:38:49;;;;;;;;;23.25;19.75;;;;;-0.61;83.81;101331.97;3725554;38;20436;-57
2020/12/10 01:41:18;;;;;;;;;25.00;16.75;;;;;-0.58;83.70;101331.78;3725522;38;20440;-56
2020/12/10 01:43:44;;;;;;;;;22.75;18.25;;;;;-0.53;83.84;101335.88;3725646;37;20461;-56
2020/12/10 01:46:11;;;;;;;;;25.75;19.75;;;;;-0.51;83.45;101325.97;3725635;37;20447;-57
2020/12/10 01:48:39;;;;;;;;;24.75;19.50;;;;;-0.63;83.90;101316.09;3725615;38;20437;-56
2020/12/10 01:51:06;;;;;;;;;28.75;23.25;;;;;-0.56;83.66;101317.44;3725027;37;20490;-56
2020/12/10 01:53:32;;;;;;;;;26.25;20.00;;;;;-0.54;84.09;101320.84;3725010;37;20454;-57
2020/12/10 01:56:01;;;;;;;;;25.50;18.75;;;;;-0.51;84.11;101304.69;3725588;38;20450;-57
2020/12/10 01:58:27;;;;;;;;;21.75;17.25;;;;;-0.47;84.12;101302.69;3725469;37;20459;-57
2020/12/10 02:00:53;;;;;;;;;27.00;23.50;;;;;-0.50;84.08;101301.06;3725471;37;20415;-58
2020/12/10 02:03:22;;;;;;;;;22.25;17.50;;;;;-0.50;84.07;101298.41;3725439;37;20423;-58
2020/12/10 02:05:48;;;;;;;;;20.75;16.75;;;;;-0.56;84.18;101293.50;3725055;37;20345;-58
2020/12/10 02:08:15;;;;;;;;;23.75;20.00;;;;;-0.52;84.22;101287.03;3725485;38;20459;-57
2020/12/10 02:10:42;;;;;;;;;27.00;21.50;;;;;-0.45;84.39;101280.38;3725339;38;20437;-58
2020/12/10 02:13:08;;;;;;;;;25.75;20.00;;;;;-0.56;84.16;101266.06;3725368;38;20398;-57
2020/12/10 02:15:36;;;;;;;;;25.00;21.25;;;;;-0.42;84.52;101271.34;3725371;38;20428;-56
2020/12/10 02:18:06;;;;;;;;;22.75;21.50;;;;;-0.46;84.39;101262.72;3725388;37;19831;-57
2020/12/10 02:20:34;;;;;;;;;22.75;19.50;;;;;-0.39;84.57;101263.19;3725648;37;19950;-57
2020/12/10 02:23:04;;;;;;;;;26.00;21.50;;;;;-0.38;84.25;101255.13;3725622;38;19834;-56
2020/12/10 02:25:33;;;;;;;;;20.25;18.75;;;;;-0.45;83.96;101244.97;3725726;37;19850;-56
2020/12/10 02:28:04;;;;;;;;;23.75;19.50;;;;;-0.38;84.31;101236.50;3725736;37;19852;-56
2020/12/10 02:30:31;;;;;;;;;148.50;114.00;;;;;-0.39;84.49;101237.44;3725812;37;19848;-57
2020/12/10 02:33:03;;;;;;;;;32.50;25.75;;;;;-0.26;84.30;101245.50;3725696;37;17694;-56
2020/12/10 02:35:31;;;;;;;;;23.25;20.25;;;;;-0.25;84.10;101244.56;3725776;37;19843;-56
2020/12/10 02:37:59;;;;;;;;;29.50;22.25;;;;;-0.23;84.38;101244.47;3725763;38;19813;-57
2020/12/10 02:40:31;;;;;;;;;25.00;21.50;;;;;-0.23;84.26;101240.00;3725577;37;19829;-56
2020/12/10 02:42:59;;;;;;;;;21.75;19.00;;;;;-0.23;84.17;101225.84;3725712;38;19836;-58
2020/12/10 02:45:26;;;;;;;;;24.50;23.00;;;;;-0.20;84.53;101228.31;3725794;37;19818;-56
2020/12/10 02:47:54;;;;;;;;;30.00;21.50;;;;;-0.23;84.38;101228.50;3725869;37;19798;-57
2020/12/10 02:50:21;;;;;;;;;26.50;21.50;;;;;-0.23;84.30;101223.19;3725900;37;19836;-58
2020/12/10 02:52:47;;;;;;;;;23.50;21.75;;;;;-0.23;84.60;101226.69;3725441;37;19804;-57
2020/12/10 02:55:13;;;;;;;;;23.25;19.25;;;;;-0.23;84.58;101225.84;3725852;37;19817;-57
2020/12/10 02:57:40;;;;;;;;;25.50;22.25;;;;;-0.18;84.68;101223.75;3725783;38;19795;-58
2020/12/10 03:00:09;;;;;;;;;24.75;21.75;;;;;-0.16;84.60;101211.19;3725739;37;19803;-58
2020/12/10 03:02:39;;;;;;;;;25.50;20.50;;;;;-0.11;84.59;101212.63;3725457;37;19800;-57
2020/12/10 03:05:06;;;;;;;;;26.25;22.25;;;;;-0.09;84.63;101207.19;3726060;37;19810;-57
2020/12/10 03:07:34;;;;;;;;;26.75;23.25;;;;;-0.17;84.32;101207.69;3726180;38;19801;-57
2020/12/10 03:10:02;;;;;;;;;32.50;27.00;;;;;-0.21;84.62;101216.81;3725672;37;19810;-61
2020/12/10 03:12:28;;;;;;;;;26.00;22.50;;;;;-0.17;84.46;101205.03;3726886;38;19750;-58
2020/12/10 03:14:54;;;;;;;;;28.00;24.00;;;;;-0.15;84.76;101204.94;3726301;37;19779;-57
2020/12/10 03:17:21;;;;;;;;;27.00;24.25;;;;;-0.22;84.93;101190.31;3725606;37;20336;-57
2020/12/10 03:19:48;;;;;;;;;25.75;21.00;;;;;-0.13;84.70;101203.03;3725621;37;20354;-58
2020/12/10 03:22:15;;;;;;;;;24.25;21.00;;;;;-0.12;84.78;101197.59;3725494;38;20308;-59
2020/12/10 03:24:42;;;;;;;;;20.50;11.50;;;;;-0.10;84.96;101184.19;3725314;37;20340;-57
2020/12/10 03:27:08;;;;;;;;;22.00;21.25;;;;;-0.17;84.80;101186.41;3725573;38;20315;-58
2020/12/10 03:29:34;;;;;;;;;19.50;17.25;;;;;-0.10;84.95;101190.38;3725616;37;20341;-57
2020/12/10 03:32:02;;;;;;;;;27.50;23.50;;;;;-0.14;84.92;101169.37;3725587;38;20312;-58
2020/12/10 03:34:29;;;;;;;;;22.50;18.00;;;;;-0.04;85.01;101173.16;3725501;37;20322;-56
2020/12/10 03:36:58;;;;;;;;;20.75;18.75;;;;;-0.05;85.05;101168.78;3725598;37;20314;-58
2020/12/10 03:39:26;;;;;;;;;20.00;17.25;;;;;-0.06;84.95;101167.94;3725503;37;20310;-57
2020/12/10 03:41:57;;;;;;;;;21.00;17.25;;;;;-0.05;85.08;101163.47;3725701;38;20313;-58
2020/12/10 03:44:25;;;;;;;;;21.00;18.00;;;;;-0.11;84.95;101163.88;3725451;38;20300;-56
2020/12/10 03:46:53;;;;;;;;;30.00;22.00;;;;;-0.11;85.09;101162.06;3725525;38;20474;-57
2020/12/10 03:49:21;;;;;;;;;27.75;17.25;;;;;-0.08;85.47;101161.00;3725259;37;20302;-57
2020/12/10 03:51:50;;;;;;;;;18.75;15.75;;;;;-0.12;85.27;101156.84;3725596;38;20305;-58
2020/12/10 03:54:16;;;;;;;;;15.50;13.50;;;;;-0.20;85.54;101156.47;3725496;37;20303;-58
2020/12/10 03:56:42;;;;;;;;;21.50;16.25;;;;;-0.19;85.58;101147.56;3725534;37;20267;-57
2020/12/10 03:59:09;;;;;;;;;21.50;17.50;;;;;-0.22;85.71;101145.94;3725633;37;20306;-56
2020/12/10 04:01:36;;;;;;;;;14.50;13.00;;;;;-0.22;85.83;101145.09;3725616;38;20261;-56
2020/12/10 04:04:03;;;;;;;;;23.50;21.00;;;;;-0.17;85.87;101140.31;3725073;37;20296;-57
2020/12/10 04:06:29;;;;;;;;;19.25;17.00;;;;;-0.13;86.11;101133.84;3725486;38;20251;-57
2020/12/10 04:08:55;;;;;;;;;24.50;19.50;;;;;-0.13;86.25;101116.09;3725633;37;20250;-56
2020/12/10 04:11:22;;;;;;;;;22.25;19.25;;;;;-0.08;85.84;101116.62;3725697;37;20264;-57
2020/12/10 04:13:48;;;;;;;;;20.50;19.00;;;;;-0.07;86.11;101113.03;3725562;37;20251;-58
2020/12/10 04:16:15;;;;;;;;;19.00;18.00;;;;;-0.01;86.45;101107.28;3725483;37;20265;-56
2020/12/10 04:18:42;;;;;;;;;20.75;17.00;;;;;0.02;86.45;101108.84;3725803;37;20268;-57
2020/12/10 04:21:11;;;;;;;;;14.00;13.00;;;;;0.06;86.38;101115.69;3725753;38;20242;-59
2020/12/10 04:23:38;;;;;;;;;23.00;17.50;;;;;0.10;86.71;101111.00;3725701;37;20227;-56
2020/12/10 04:26:05;;;;;;;;;16.50;15.75;;;;;0.10;86.15;101109.19;3725675;38;20238;-56
2020/12/10 04:28:31;;;;;;;;;31.25;25.50;;;;;0.09;86.36;101102.16;3725388;37;20263;-57
2020/12/10 04:30:58;;;;;;;;;32.25;27.00;;;;;0.14;86.67;101110.69;3725710;37;20256;-57
2020/12/10 04:33:24;;;;;;;;;23.00;17.25;;;;;0.18;86.35;101098.91;3725548;38;20219;-58
2020/12/10 04:35:52;;;;;;;;;23.50;19.25;;;;;0.16;86.87;101100.81;3725478;37;20226;-58
2020/12/10 04:38:18;;;;;;;;;26.75;20.00;;;;;0.13;86.90;101098.34;3725182;38;20218;-55
2020/12/10 04:40:44;;;;;;;;;27.25;22.75;;;;;0.17;86.87;101102.50;3725620;37;20240;-57
2020/12/10 04:43:11;;;;;;;;;17.50;16.50;;;;;0.16;87.15;101095.47;3725723;37;21213;-58
2020/12/10 04:45:38;;;;;;;;;19.00;17.50;;;;;0.18;86.95;101088.25;3725602;38;21195;-57
2020/12/10 04:48:05;;;;;;;;;20.50;13.75;;;;;0.19;87.10;101084.63;3725467;37;20213;-57
2020/12/10 04:50:34;;;;;;;;;15.75;10.25;;;;;0.19;86.89;101068.66;3725633;37;20218;-57
2020/12/10 04:53:02;;;;;;;;;26.75;21.25;;;;;0.32;87.00;101087.31;3725677;37;21161;-58
2020/12/10 04:55:32;;;;;;;;;22.75;20.50;;;;;0.28;86.80;101081.34;3725580;38;21210;-56
2020/12/10 05:05:30;;;;;;;;;16.50;14.25;;;;;0.35;87.06;101064.94;3725774;37;20657;-57
2020/12/10 05:08:02;;;;;;;;;14.75;13.00;;;;;0.08;87.16;101023.28;3725822;38;20677;-57
2020/12/10 05:10:29;;;;;;;;;21.00;17.25;;;;;0.38;87.29;101064.75;3725567;37;20648;-59
2020/12/10 05:13:07;;;;;;;;;18.00;17.00;;;;;0.41;87.13;101061.88;3725835;37;20632;-57
2020/12/10 05:15:34;;;;;;;;;19.00;16.25;;;;;0.43;87.19;101057.28;3725901;37;20618;-57
2020/12/10 05:18:10;;;;;;;;;14.25;13.25;;;;;0.42;87.46;101055.59;3725618;38;20998;-58
2020/12/10 05:20:50;;;;;;;;;20.50;13.75;;;;;0.42;87.50;101060.91;3725818;37;21011;-56
2020/12/10 05:23:36;;;;;;;;;17.00;14.25;;;;;0.46;87.44;101049.09;3725646;37;20996;-57
2020/12/10 05:26:04;;;;;;;;;22.00;16.75;;;;;0.48;87.23;101047.16;3725886;38;21019;-57
2020/12/10 05:28:59;;;;;;;;;27.00;21.00;;;;;0.50;87.28;101043.44;3725597;37;20970;-57
2020/12/10 05:31:26;;;;;;;;;21.25;17.25;;;;;0.49;87.47;101038.22;3725702;38;20938;-57
2020/12/10 05:34:02;;;;;;;;;21.50;18.25;;;;;0.53;87.47;101040.53;3725941;37;20956;-57
2020/12/10 05:36:31;;;;;;;;;37.75;33.25;;;;;0.56;87.28;101034.13;3725624;37;20993;-58
2020/12/10 05:39:04;;;;;;;;;18.00;14.50;;;;;0.52;87.47;101014.03;3725489;37;21021;-58
2020/12/10 05:41:37;;;;;;;;;20.00;17.00;;;;;0.62;87.34;101031.91;3725747;38;20957;-58
2020/12/10 05:44:27;;;;;;;;;20.75;19.25;;;;;0.68;87.29;101040.41;3725415;38;20961;-58
2020/12/10 05:47:04;;;;;;;;;24.50;21.25;;;;;0.71;87.48;101032.22;3726666;37;20937;-57
2020/12/10 05:49:31;;;;;;;;;27.00;23.00;;;;;0.79;87.64;101033.37;3725662;38;20949;-58
2020/12/10 05:52:05;;;;;;;;;32.00;24.25;;;;;0.80;87.49;101031.56;3725807;38;20960;-58
2020/12/10 05:54:35;;;;;;;;;24.25;17.50;;;;;0.83;87.50;101039.34;3725685;38;20949;-59
2020/12/10 05:57:04;;;;;;;;;17.25;15.75;;;;;0.77;87.15;101037.97;3725557;38;20961;-58
2020/12/10 05:59:31;;;;;;;;;16.25;15.00;;;;;0.76;87.26;101033.59;3725450;37;20935;-57
2020/12/10 06:02:00;;;;;;;;;24.50;23.50;;;;;0.79;87.57;101030.72;3725462;38;20932;-57
2020/12/10 06:04:35;;;;;;;;;21.25;20.00;;;;;0.76;87.21;101022.94;3725544;38;20951;-57
2020/12/10 06:07:02;;;;;;;;;21.25;19.50;;;;;0.80;87.64;101034.22;3725865;37;20932;-59
2020/12/10 06:09:29;;;;;;;;;19.25;17.25;;;;;0.81;87.36;101036.78;3725767;37;20912;-59
2020/12/10 06:12:06;;;;;;;;;21.00;18.75;;;;;0.84;87.78;101036.56;3725746;38;20925;-58
2020/12/10 06:14:33;;;;;;;;;20.75;18.00;;;;;0.84;87.61;101027.72;3725603;37;20924;-59
2020/12/10 06:17:17;;;;;;;;;22.75;21.50;;;;;0.79;87.71;101017.38;3725409;38;20921;-57
2020/12/10 06:19:43;;;;;;;;;20.50;19.00;;;;;0.89;87.43;101026.44;3725397;37;20915;-57
2020/12/10 06:22:29;;;;;;;;;22.00;19.50;;;;;0.85;87.70;101016.09;3725583;38;20907;-57
2020/12/10 06:25:00;;;;;;;;;18.75;18.00;;;;;0.90;87.74;101011.28;3725512;37;20902;-58
2020/12/10 06:27:31;;;;;;;;;22.00;18.00;;;;;0.94;87.55;101015.44;3725352;37;20910;-58
2020/12/10 06:30:18;;;;;;;;;20.25;17.25;;;;;0.97;87.79;101010.75;3725559;38;20883;-59
2020/12/10 06:32:52;;;;;;;;;18.75;16.00;;;;;0.98;87.49;101004.44;3725653;37;20884;-58
2020/12/10 06:35:30;;;;;;;;;15.00;14.00;;;;;1.03;87.61;101004.13;3725545;37;20873;-59
2020/12/10 06:37:57;;;;;;;;;22.50;20.50;;;;;1.04;87.98;100988.97;3725591;37;20911;-58
2020/12/10 06:40:40;;;;;;;;;18.50;14.75;;;;;1.09;87.54;100998.31;3725595;37;20874;-58
2020/12/10 06:43:09;;;;;;;;;18.25;14.00;;;;;1.07;87.57;100980.72;3725658;38;20881;-57
2020/12/10 06:45:37;;;;;;;;;14.50;11.75;;;;;1.14;87.60;100987.31;3725582;37;20883;-58
2020/12/10 06:48:08;;;;;;;;;12.00;10.00;;;;;1.12;87.74;100963.44;3725611;37;20872;-58
2020/12/10 06:50:38;;;;;;;;;14.25;10.75;;;;;1.23;87.74;100978.63;3725606;37;20848;-57
2020/12/10 06:53:18;;;;;;;;;15.50;10.75;;;;;1.25;87.81;100966.91;3725737;38;20867;-58
2020/12/10 06:56:03;;;;;;;;;11.00;10.75;;;;;1.27;87.62;100972.13;3725276;38;20843;-58
2020/12/10 06:58:58;;;;;;;;;19.00;16.00;;;;;1.31;87.60;100969.09;3725618;37;20831;-59
2020/12/10 07:01:35;;;;;;;;;14.75;13.25;;;;;1.36;87.77;100974.09;3725172;38;20878;-56
2020/12/10 07:04:42;;;;;;;;;13.75;12.00;;;;;1.33;87.66;100966.34;3725681;38;20866;-57
2020/12/10 07:07:22;;;;;;;;;13.25;12.00;;;;;1.40;87.35;100966.72;3725655;37;20808;-58
2020/12/10 07:09:58;;;;;;;;;13.50;10.00;;;;;1.36;87.72;100955.44;3725708;37;20829;-57
2020/12/10 07:12:33;;;;;;;;;10.50;9.75;;;;;1.38;87.72;100966.00;3725549;38;20799;-59
2020/12/10 07:15:27;;;;;;;;;9.50;9.00;;;;;1.38;87.53;100974.00;3725573;37;20788;-57
2020/12/10 07:17:57;;;;;;;;;13.25;10.25;;;;;1.42;87.87;100976.31;3725659;38;20809;-57
2020/12/10 07:20:28;;;;;;;;;20.00;18.00;;;;;1.45;87.50;100973.41;3725612;37;20826;-58
2020/12/10 07:22:55;;;;;;;;;11.00;10.25;;;;;1.47;87.66;100974.16;3725675;38;20838;-59
2020/12/10 07:25:22;;;;;;;;;15.00;13.75;;;;;1.50;87.64;100979.25;3725660;37;20821;-57
2020/12/10 07:27:49;;;;;;;;;17.00;12.75;;;;;1.50;87.75;100975.75;3725593;37;20801;-56
2020/12/10 07:30:18;;;;;;;;;14.25;11.25;;;;;1.47;87.58;100968.81;3725715;38;20822;-56
2020/12/10 07:32:45;;;;;;;;;17.00;15.50;;;;;1.51;87.89;100972.97;3725532;37;20825;-59
2020/12/10 07:35:12;;;;;;;;;20.50;18.75;;;;;1.41;87.55;100957.75;3725654;37;20796;-59
2020/12/10 07:37:39;;;;;;;;;18.50;17.50;;;;;1.56;87.89;100970.75;3725534;37;20812;-59
2020/12/10 07:40:10;;;;;;;;;23.50;21.00;;;;;1.49;87.85;100939.38;3725455;38;20830;-58
2020/12/10 07:42:36;;;;;;;;;23.50;19.25;;;;;1.61;87.68;100941.06;3725584;38;20797;-59
2020/12/10 07:45:32;;;;;;;;;18.75;16.00;;;;;1.74;87.82;100947.19;3725546;37;20792;-58
2020/12/10 07:48:06;;;;;;;;;16.75;15.25;;;;;1.81;87.76;100947.56;3725526;38;20767;-59
2020/12/10 07:50:35;;;;;;;;;10.50;8.75;;;;;1.78;87.41;100937.97;3725842;37;20798;-57
2020/12/10 07:53:03;;;;;;;;;12.25;11.50;;;;;1.76;87.47;100934.56;3725564;38;20778;-58
2020/12/10 07:55:34;;;;;;;;;11.50;9.25;;;;;1.77;87.51;100930.94;3725522;38;20790;-60
2020/12/10 07:58:16;;;;;;;;;18.00;11.75;;;;;1.87;88.00;100939.94;3725275;38;20717;-57
2020/12/10 08:00:46;;;;;;;;;13.25;12.00;;;;;1.93;87.72;100938.63;3725525;38;20778;-58
2020/12/10 08:03:38;;;;;;;;;13.00;12.00;;;;;1.85;87.58;100939.19;3725450;37;20777;-57
2020/12/10 08:06:07;;;;;;;;;26.75;23.75;;;;;1.92;87.66;100935.09;3725723;38;20769;-58
2020/12/10 08:08:54;;;;;;;;;18.25;15.75;;;;;1.98;87.67;100934.63;3725872;38;20755;-57
2020/12/10 08:11:22;;;;;;;;;35.00;31.75;;;;;2.01;87.44;100927.34;3725547;37;20771;-59
2020/12/10 08:14:08;;;;;;;;;45.75;39.00;;;;;2.00;87.72;100931.81;3725325;37;20763;-58
2020/12/10 08:16:39;;;;;;;;;23.50;18.50;;;;;2.00;87.64;100937.16;3725573;37;20839;-57
2020/12/10 08:19:31;;;;;;;;;17.25;16.00;;;;;2.00;87.96;100921.16;3725503;38;20758;-58
2020/12/10 08:21:59;;;;;;;;;15.75;12.00;;;;;2.06;87.62;100931.34;3725826;37;20760;-57
2020/12/10 08:24:42;;;;;;;;;17.25;15.25;;;;;2.12;87.49;100930.00;3725573;37;20762;-59
2020/12/10 08:27:14;;;;;;;;;15.75;14.50;;;;;2.13;87.84;100934.38;3725645;37;20725;-59
2020/12/10 08:30:02;;;;;;;;;10.75;10.00;;;;;2.15;87.69;100933.28;3724811;37;20724;-59
2020/12/10 08:32:28;;;;;;;;;13.50;12.25;;;;;2.18;87.78;100940.19;3724921;38;20715;-58
2020/12/10 08:35:08;;;;;;;;;15.00;15.00;;;;;2.11;87.58;100929.16;3725002;38;20724;-59
2020/12/10 08:37:41;;;;;;;;;15.00;14.50;;;;;2.27;87.62;100945.66;3724706;37;20716;-58
2020/12/10 08:40:09;;;;;;;;;20.50;18.50;;;;;2.36;88.00;100944.09;3725442;37;20721;-59
2020/12/10 08:42:39;;;;;;;;;8.25;8.25;;;;;2.42;87.55;100937.41;3725571;37;20743;-59
2020/12/10 08:45:06;;;;;;;;;14.75;13.75;;;;;2.47;87.59;100940.56;3725407;37;20660;-57
2020/12/10 08:47:33;;;;;;;;;13.50;11.25;;;;;2.47;87.45;100924.53;3725612;37;20709;-58
2020/12/10 08:50:23;;;;;;;;;13.25;12.00;;;;;2.52;87.85;100922.34;3725241;38;20716;-58
2020/12/10 08:53:09;;;;;;;;;14.75;13.50;;;;;2.56;87.60;100915.78;3725567;37;20714;-57
2020/12/10 08:55:45;;;;;;;;;20.25;18.75;;;;;2.59;87.59;100913.72;3725624;37;20773;-57
2020/12/10 08:58:33;;;;;;;;;11.50;10.25;;;;;2.59;87.25;100910.19;3725693;38;20719;-58
2020/12/10 09:01:00;;;;;;;;;20.50;14.00;;;;;2.58;87.66;100911.19;3725783;38;20984;-59
2020/12/10 09:03:26;;;;;;;;;22.00;21.00;;;;;2.65;87.47;100920.38;3725609;37;20709;-58
2020/12/10 09:05:53;;;;;;;;;19.25;17.25;;;;;2.58;87.37;100913.84;3725723;38;20688;-57
2020/12/10 09:08:20;;;;;;;;;19.50;18.50;;;;;2.57;87.63;100896.97;3725738;38;20687;-57
2020/12/10 09:10:46;;;;;;;;;16.00;14.25;;;;;2.54;87.92;100875.84;3725434;37;20767;-58
2020/12/10 09:13:12;;;;;;;;;15.00;13.00;;;;;2.60;87.58;100901.22;3725684;38;20686;-58
2020/12/10 09:15:41;;;;;;;;;16.50;14.00;;;;;2.66;87.95;100904.22;3725105;37;20695;-59
2020/12/10 09:18:07;;;;;;;;;14.25;14.00;;;;;2.75;88.07;100907.97;3724965;37;20667;-60
2020/12/10 09:20:33;;;;;;;;;15.00;13.00;;;;;2.73;87.72;100898.37;3725016;37;20639;-58
2020/12/10 09:22:59;;;;;;;;;20.00;17.00;;;;;2.86;87.67;100902.59;3725916;38;20700;-58
2020/12/10 09:25:26;;;;;;;;;22.25;21.00;;;;;2.95;87.64;100898.31;3725976;38;20653;-60
2020/12/10 09:27:52;;;;;;;;;24.50;21.00;;;;;2.88;87.80;100870.38;3725281;37;20740;-59
2020/12/10 09:30:18;;;;;;;;;27.00;23.50;;;;;2.83;87.37;100852.06;3725619;38;20653;-60
2020/12/10 09:32:44;;;;;;;;;18.75;17.25;;;;;2.98;87.47;100868.66;3725816;38;20648;-61
2020/12/10 09:35:13;;;;;;;;;12.00;11.25;;;;;3.10;87.95;100859.63;3725451;37;20645;-60
2020/12/10 09:37:41;;;;;;;;;12.00;11.00;;;;;3.16;87.62;100844.84;3725495;37;20700;-62
2020/12/10 09:40:12;;;;;;;;;11.75;10.75;;;;;3.09;87.53;100843.69;3725543;38;20610;-60
2020/12/10 09:42:48;;;;;;;;;10.00;7.75;;;;;3.16;87.59;100839.50;3725716;37;20621;-60
2020/12/10 09:45:19;;;;;;;;;20.25;16.50;;;;;3.22;87.59;100833.63;3725648;37;20602;-62
2020/12/10 09:47:46;;;;;;;;;12.00;11.25;;;;;3.10;87.32;100814.16;3726361;37;20635;-60
2020/12/10 09:50:31;;;;;;;;;11.25;10.00;;;;;3.18;87.63;100826.84;3726041;37;20636;-62
2020/12/10 09:53:11;;;;;;;;;18.00;15.75;;;;;3.15;87.52;100824.44;3725720;38;20616;-64
2020/12/10 09:58:24;;;;;;;;;10.50;7.50;;;;;3.14;87.55;100830.75;3726180;37;20557;-60
2020/12/10 10:00:52;;;;;;;;;28.75;26.50;;;;;3.28;87.25;100839.31;3725679;37;20561;-61
2020/12/10 10:03:20;;;;;;;;;11.00;11.00;;;;;3.31;87.50;100831.03;3725214;38;20614;-60
2020/12/10 10:05:46;;;;;;;;;8.25;8.00;;;;;3.32;87.86;100823.87;3725766;37;20602;-61
2020/12/10 10:08:29;;;;;;;;;8.50;7.25;;;;;3.48;87.50;100834.97;3725548;37;20547;-60
2020/12/10 10:10:55;;;;;;;;;8.25;7.25;;;;;3.39;87.38;100835.75;3725687;37;20571;-61
2020/12/10 10:13:22;;;;;;;;;12.00;11.00;;;;;3.49;87.52;100836.66;3725602;37;20545;-59
2020/12/10 10:15:49;;;;;;;;;8.00;8.00;;;;;3.45;86.96;100829.03;3725724;37;20560;-59
2020/12/10 10:18:16;;;;;;;;;8.00;8.00;;;;;3.44;87.29;100817.47;3725593;38;20556;-60
2020/12/10 10:20:43;;;;;;;;;14.00;11.00;;;;;3.42;87.16;100787.31;3725694;37;20532;-59
2020/12/10 10:23:10;;;;;;;;;17.00;13.00;;;;;3.48;87.47;100794.81;3725598;37;20583;-60
2020/12/10 10:25:36;;;;;;;;;13.25;11.75;;;;;3.47;87.21;100792.28;3725149;38;20585;-60
2020/12/10 10:28:10;;;;;;;;;19.25;18.00;;;;;3.53;87.60;100792.59;3725621;37;20590;-60
2020/12/10 10:30:37;;;;;;;;;12.50;12.00;;;;;3.51;87.49;100791.03;3725627;38;20584;-59
2020/12/10 10:33:04;;;;;;;;;14.00;13.00;;;;;3.48;87.25;100789.47;3725479;37;20531;-60
2020/12/10 10:35:30;;;;;;;;;15.50;13.00;;;;;3.51;87.38;100793.72;3725675;37;20561;-61
2020/12/10 10:37:56;;;;;;;;;13.75;12.00;;;;;3.41;87.13;100782.94;3725574;37;20560;-60
2020/12/10 10:40:24;;;;;;;;;13.50;11.75;;;;;3.42;87.15;100778.44;3725805;37;20555;-61
2020/12/10 10:42:51;;;;;;;;;14.50;12.25;;;;;3.44;87.32;100790.72;3725642;37;20549;-60
2020/12/10 10:45:17;;;;;;;;;14.75;12.00;;;;;3.36;87.02;100778.97;3725558;38;20561;-59
2020/12/10 10:47:44;;;;;;;;;16.75;14.50;;;;;3.18;87.18;100774.22;3725695;38;20548;-60
2020/12/10 10:50:10;;;;;;;;;14.00;14.00;;;;;3.29;87.59;100773.31;3725743;37;20556;-59
2020/12/10 10:52:36;;;;;;;;;30.25;28.00;;;;;3.33;87.21;100766.72;3725631;37;20534;-59
2020/12/10 10:55:03;;;;;;;;;40.75;35.00;;;;;3.25;86.92;100767.38;3725640;38;20544;-61
2020/12/10 10:57:29;;;;;;;;;32.25;28.00;;;;;3.18;86.49;100765.34;3725679;38;20544;-60
2020/12/10 10:59:55;;;;;;;;;46.50;39.50;;;;;3.15;86.82;100750.41;3725750;37;20539;-59
2020/12/10 11:02:21;;;;;;;;;42.00;38.25;;;;;3.10;86.49;100741.13;3725233;38;20593;-58
2020/12/10 11:04:51;;;;;;;;;47.50;39.25;;;;;3.13;86.56;100746.16;3725401;38;20587;-57
2020/12/10 11:07:17;;;;;;;;;47.25;37.25;;;;;3.17;86.89;100744.94;3725631;38;20578;-59
2020/12/10 11:09:43;;;;;;;;;46.25;37.50;;;;;3.19;87.02;100745.66;3725548;38;20562;-58
2020/12/10 11:12:11;;;;;;;;;49.00;39.50;;;;;3.21;86.98;100743.69;3725573;38;20571;-59
2020/12/10 11:14:38;;;;;;;;;51.00;42.75;;;;;3.11;86.58;100737.47;3725398;38;20586;-58
2020/12/10 11:17:05;;;;;;;;;39.00;34.00;;;;;3.16;86.90;100748.59;3725489;38;20589;-59
2020/12/10 11:19:31;;;;;;;;;49.00;40.25;;;;;3.15;87.01;100745.06;3725559;38;20539;-58
2020/12/10 11:21:59;;;;;;;;;48.25;43.00;;;;;3.12;86.49;100744.50;3725761;37;20592;-57
2020/12/10 11:24:26;;;;;;;;;53.00;42.50;;;;;3.05;86.53;100735.31;3725621;38;20584;-57
2020/12/10 11:26:53;;;;;;;;;43.25;38.75;;;;;3.01;86.66;100726.69;3725521;38;20559;-58
2020/12/10 11:29:19;;;;;;;;;51.75;44.00;;;;;3.17;87.22;100720.84;3725440;38;20547;-58
2020/12/10 11:31:46;;;;;;;;;39.50;34.75;;;;;3.19;86.63;100719.75;3725554;37;20558;-59
2020/12/10 11:34:14;;;;;;;;;48.25;41.25;;;;;3.18;86.90;100714.53;3725558;38;20509;-59
2020/12/10 11:36:42;;;;;;;;;49.25;41.50;;;;;3.08;86.79;100710.97;3725284;37;20551;-61